PWSweather.com
Personal Weather Stations
Station Observations
KCOGRAND2
Redlands, Southcamp Road & Dakota Circle, Grand Junction, CO 81507

Redlands, Southcamp Road & Dakota CircleGrand Junction, CO 81507

Lat: 39.055, Lon: -108.637

Elevation: 4870

Station Type: RadioShack WX200

Latest ConditionsUpdated 7:09:30 AM MDT Monday, May 29, 2017
Currently Today's Max Today's Min Today's Average
Temperature 59.0°F15.0°C 62.8°F17.1°C 51.3°F10.7°C 56.9°F13.8°C
Dew Point -5537.2°C -0.4°F-18.0°C -1.5°F-18.6°C -0.9°F-18.3°C
Winds 4.0 mph N6.4 kmh N 5.0 mph N8.0 kmh N - 2.3 mph 3.7 kmh
Wind Gusts 7.8 mph12.6 kmh 7.8 mph12.6 kmh - -
Humidity - 11% 11% 11%
Pressure 25.19 in853.0 mb 25.19 in853.0 mb 25.16 in852.0 mb -
Hour Temp Dew Point Humidity Winds Wind Gusts Pressure Precip Precip Rate Daily Precip Total
07:09 AM 59.0°F15.0°C -5537.2°C - 4.0 mph N6.4 kmh N 7.8 mph12.6 kmh 25.19 in853.0 mb 0.00 in0.0 mm 0.00 in0.0 mm 0.00 in0.0 mm
07:04 AM 56.5°F13.6°C -5537.2°C - 3.0 mph NNE4.8 kmh NNE 5.8 mph9.3 kmh 25.19 in853.0 mb 0.00 in0.0 mm 0.00 in0.0 mm 0.00 in0.0 mm
06:59 AM 54.5°F12.5°C -5537.2°C - 3.0 mph NNE4.8 kmh NNE 4.5 mph7.2 kmh 25.19 in853.0 mb 0.00 in0.0 mm 0.00 in0.0 mm 0.00 in0.0 mm
06:54 AM 53.6°F12.0°C -5537.2°C - 4.0 mph NNE6.4 kmh NNE 4.9 mph7.9 kmh 25.19 in853.0 mb 0.00 in0.0 mm 0.00 in0.0 mm 0.00 in0.0 mm
06:49 AM 53.1°F11.7°C -5537.2°C - 4.0 mph NNE6.4 kmh NNE 5.4 mph8.7 kmh 25.19 in853.0 mb 0.00 in0.0 mm 0.00 in0.0 mm 0.00 in0.0 mm
06:44 AM 53.1°F11.7°C -5537.2°C - 3.0 mph NNE4.8 kmh NNE 4.9 mph7.9 kmh 25.19 in853.0 mb 0.00 in0.0 mm 0.00 in0.0 mm 0.00 in0.0 mm
06:39 AM 53.1°F11.7°C -5537.2°C - 3.0 mph NNE4.8 kmh NNE 4.9 mph7.9 kmh 25.19 in853.0 mb 0.00 in0.0 mm 0.00 in0.0 mm 0.00 in0.0 mm
06:34 AM 53.1°F11.7°C -5537.2°C - 3.0 mph NNE4.8 kmh NNE 4.9 mph7.9 kmh 25.16 in852.0 mb 0.00 in0.0 mm 0.00 in0.0 mm 0.00 in0.0 mm
06:29 AM 52.2°F11.2°C -0.8°F-18.2°C 11% 3.0 mph NNE4.8 kmh NNE 6.3 mph10.1 kmh 25.16 in852.0 mb 0.00 in0.0 mm 0.00 in0.0 mm 0.00 in0.0 mm
06:24 AM 52.7°F11.5°C -5537.2°C - 4.0 mph N6.4 kmh N 6.3 mph10.1 kmh 25.16 in852.0 mb 0.00 in0.0 mm 0.00 in0.0 mm 0.00 in0.0 mm
06:19 AM 54.1°F12.3°C -5537.2°C - 2.0 mph NNW3.2 kmh NNW 6.9 mph11.1 kmh 25.16 in852.0 mb 0.00 in0.0 mm 0.00 in0.0 mm 0.00 in0.0 mm
06:14 AM 52.0°F11.1°C -0.9°F-18.3°C 11% Calm Calm 3.6 mph5.8 kmh 25.16 in852.0 mb 0.00 in0.0 mm 0.00 in0.0 mm 0.00 in0.0 mm
06:09 AM 51.3°F10.7°C -1.5°F-18.6°C 11% Calm Calm -- 25.16 in852.0 mb 0.00 in0.0 mm 0.00 in0.0 mm 0.00 in0.0 mm
06:04 AM 51.6°F10.9°C -1.1°F-18.4°C 11% Calm Calm 3.6 mph5.8 kmh 25.16 in852.0 mb 0.00 in0.0 mm 0.00 in0.0 mm 0.00 in0.0 mm
05:59 AM 52.0°F11.1°C -0.9°F-18.3°C 11% Calm Calm -- 25.16 in852.0 mb 0.00 in0.0 mm 0.00 in0.0 mm 0.00 in0.0 mm
05:54 AM 52.5°F11.4°C -0.4°F-18.0°C 11% 2.0 mph NNW3.2 kmh NNW 3.6 mph5.8 kmh 25.16 in852.0 mb 0.00 in0.0 mm 0.00 in0.0 mm 0.00 in0.0 mm
05:49 AM 54.3°F12.4°C -5537.2°C - 3.0 mph NNW4.8 kmh NNW 4.0 mph6.4 kmh 25.16 in852.0 mb 0.00 in0.0 mm 0.00 in0.0 mm 0.00 in0.0 mm
05:44 AM 55.4°F13.0°C -5537.2°C - 4.0 mph NNW6.4 kmh NNW 5.8 mph9.3 kmh 25.16 in852.0 mb 0.00 in0.0 mm 0.00 in0.0 mm 0.00 in0.0 mm
05:39 AM 55.4°F13.0°C -5537.2°C - 3.0 mph NNW4.8 kmh NNW 4.9 mph7.9 kmh 25.16 in852.0 mb 0.00 in0.0 mm 0.00 in0.0 mm 0.00 in0.0 mm
05:34 AM 54.9°F12.7°C -5537.2°C - 3.0 mph NNW4.8 kmh NNW 4.9 mph7.9 kmh 25.16 in852.0 mb 0.00 in0.0 mm 0.00 in0.0 mm 0.00 in0.0 mm
05:29 AM 55.2°F12.9°C -5537.2°C - 3.0 mph NNW4.8 kmh NNW 4.9 mph7.9 kmh 25.16 in852.0 mb 0.00 in0.0 mm 0.00 in0.0 mm 0.00 in0.0 mm
05:24 AM 54.3°F12.4°C -5537.2°C - 1.0 mph NNW1.6 kmh NNW 4.9 mph7.9 kmh 25.16 in852.0 mb 0.00 in0.0 mm 0.00 in0.0 mm 0.00 in0.0 mm
05:19 AM 54.0°F12.2°C -5537.2°C - 1.0 mph NNW1.6 kmh NNW 2.7 mph4.3 kmh 25.16 in852.0 mb 0.00 in0.0 mm 0.00 in0.0 mm 0.00 in0.0 mm
05:14 AM 54.3°F12.4°C -5537.2°C - 2.0 mph NNW3.2 kmh NNW 3.6 mph5.8 kmh 25.16 in852.0 mb 0.00 in0.0 mm 0.00 in0.0 mm 0.00 in0.0 mm
05:09 AM 53.8°F12.1°C -5537.2°C - 2.0 mph NNW3.2 kmh NNW 4.9 mph7.9 kmh 25.16 in852.0 mb 0.00 in0.0 mm 0.00 in0.0 mm 0.00 in0.0 mm
05:04 AM 53.2°F11.8°C -5537.2°C - 1.0 mph NNW1.6 kmh NNW 3.6 mph5.8 kmh 25.16 in852.0 mb 0.00 in0.0 mm 0.00 in0.0 mm 0.00 in0.0 mm
04:59 AM 53.2°F11.8°C -5537.2°C - 1.0 mph NNW1.6 kmh NNW 4.0 mph6.4 kmh 25.16 in852.0 mb 0.00 in0.0 mm 0.00 in0.0 mm 0.00 in0.0 mm
04:54 AM 52.9°F11.6°C -5537.2°C - 1.0 mph NNW1.6 kmh NNW 3.6 mph5.8 kmh 25.16 in852.0 mb 0.00 in0.0 mm 0.00 in0.0 mm 0.00 in0.0 mm
04:49 AM 53.1°F11.7°C -5537.2°C - Calm Calm 4.5 mph7.2 kmh 25.16 in852.0 mb 0.00 in0.0 mm 0.00 in0.0 mm 0.00 in0.0 mm
04:44 AM 53.4°F11.9°C -5537.2°C - 1.0 mph NNW1.6 kmh NNW 3.1 mph5.0 kmh 25.16 in852.0 mb 0.00 in0.0 mm 0.00 in0.0 mm 0.00 in0.0 mm
04:39 AM 54.0°F12.2°C -5537.2°C - 2.0 mph NNW3.2 kmh NNW 4.0 mph6.4 kmh 25.16 in852.0 mb 0.00 in0.0 mm 0.00 in0.0 mm 0.00 in0.0 mm
04:34 AM 54.1°F12.3°C -5537.2°C - 2.0 mph NNW3.2 kmh NNW 4.5 mph7.2 kmh 25.16 in852.0 mb 0.00 in0.0 mm 0.00 in0.0 mm 0.00 in0.0 mm
04:29 AM 55.2°F12.9°C -5537.2°C - 2.0 mph NNW3.2 kmh NNW 4.5 mph7.2 kmh 25.16 in852.0 mb 0.00 in0.0 mm 0.00 in0.0 mm 0.00 in0.0 mm
04:24 AM 56.1°F13.4°C -5537.2°C - 3.0 mph N4.8 kmh N 4.0 mph6.4 kmh 25.16 in852.0 mb 0.00 in0.0 mm 0.00 in0.0 mm 0.00 in0.0 mm
04:19 AM 56.3°F13.5°C -5537.2°C - 3.0 mph N4.8 kmh N 5.4 mph8.7 kmh 25.16 in852.0 mb 0.00 in0.0 mm 0.00 in0.0 mm 0.00 in0.0 mm
04:14 AM 55.4°F13.0°C -5537.2°C - 3.0 mph NNE4.8 kmh NNE 4.5 mph7.2 kmh 25.16 in852.0 mb 0.00 in0.0 mm 0.00 in0.0 mm 0.00 in0.0 mm
04:09 AM 55.0°F12.8°C -5537.2°C - 2.0 mph NNE3.2 kmh NNE 4.5 mph7.2 kmh 25.16 in852.0 mb 0.00 in0.0 mm 0.00 in0.0 mm 0.00 in0.0 mm
04:04 AM 55.9°F13.3°C -5537.2°C - Calm Calm 4.0 mph6.4 kmh 25.16 in852.0 mb 0.00 in0.0 mm 0.00 in0.0 mm 0.00 in0.0 mm
03:59 AM 56.7°F13.7°C -5537.2°C - 2.0 mph N3.2 kmh N 4.0 mph6.4 kmh 25.16 in852.0 mb 0.00 in0.0 mm 0.00 in0.0 mm 0.00 in0.0 mm
03:54 AM 57.4°F14.1°C -5537.2°C - 3.0 mph N4.8 kmh N 4.5 mph7.2 kmh 25.16 in852.0 mb 0.00 in0.0 mm 0.00 in0.0 mm 0.00 in0.0 mm
03:49 AM 57.0°F13.9°C -5537.2°C - 3.0 mph N4.8 kmh N 5.4 mph8.7 kmh 25.16 in852.0 mb 0.00 in0.0 mm 0.00 in0.0 mm 0.00 in0.0 mm
03:44 AM 56.5°F13.6°C -5537.2°C - 2.0 mph N3.2 kmh N 4.5 mph7.2 kmh 25.16 in852.0 mb 0.00 in0.0 mm 0.00 in0.0 mm 0.00 in0.0 mm
03:39 AM 57.9°F14.4°C -5537.2°C - 3.0 mph N4.8 kmh N 5.8 mph9.3 kmh 25.16 in852.0 mb 0.00 in0.0 mm 0.00 in0.0 mm 0.00 in0.0 mm
03:34 AM 57.0°F13.9°C -5537.2°C - 3.0 mph N4.8 kmh N 4.5 mph7.2 kmh 25.16 in852.0 mb 0.00 in0.0 mm 0.00 in0.0 mm 0.00 in0.0 mm
03:29 AM 57.0°F13.9°C -5537.2°C - 3.0 mph N4.8 kmh N 4.5 mph7.2 kmh 25.16 in852.0 mb 0.00 in0.0 mm 0.00 in0.0 mm 0.00 in0.0 mm
03:24 AM 57.2°F14.0°C -5537.2°C - 3.0 mph N4.8 kmh N 4.9 mph7.9 kmh 25.16 in852.0 mb 0.00 in0.0 mm 0.00 in0.0 mm 0.00 in0.0 mm
03:19 AM 57.4°F14.1°C -5537.2°C - 4.0 mph N6.4 kmh N 5.4 mph8.7 kmh 25.16 in852.0 mb 0.00 in0.0 mm 0.00 in0.0 mm 0.00 in0.0 mm
03:13 AM 58.8°F14.9°C -5537.2°C - 4.0 mph NNE6.4 kmh NNE 6.7 mph10.8 kmh 25.16 in852.0 mb 0.00 in0.0 mm 0.00 in0.0 mm 0.00 in0.0 mm
03:08 AM 57.7°F14.3°C -5537.2°C - 4.0 mph NNE6.4 kmh NNE 5.4 mph8.7 kmh 25.16 in852.0 mb 0.00 in0.0 mm 0.00 in0.0 mm 0.00 in0.0 mm
03:03 AM 57.4°F14.1°C -5537.2°C - 4.0 mph NE6.4 kmh NE 5.4 mph8.7 kmh 25.16 in852.0 mb 0.00 in0.0 mm 0.00 in0.0 mm 0.00 in0.0 mm
02:58 AM 56.7°F13.7°C -5537.2°C - 4.0 mph NE6.4 kmh NE 5.4 mph8.7 kmh 25.16 in852.0 mb 0.00 in0.0 mm 0.00 in0.0 mm 0.00 in0.0 mm
02:53 AM 57.2°F14.0°C -5537.2°C - 4.0 mph NNE6.4 kmh NNE 5.4 mph8.7 kmh 25.16 in852.0 mb 0.00 in0.0 mm 0.00 in0.0 mm 0.00 in0.0 mm
02:48 AM 58.3°F14.6°C -5537.2°C - 5.0 mph NNE8.0 kmh NNE 6.3 mph10.1 kmh 25.16 in852.0 mb 0.00 in0.0 mm 0.00 in0.0 mm 0.00 in0.0 mm
02:43 AM 59.5°F15.3°C -5537.2°C - 5.0 mph N8.0 kmh N 7.4 mph11.9 kmh 25.16 in852.0 mb 0.00 in0.0 mm 0.00 in0.0 mm 0.00 in0.0 mm
02:38 AM 59.7°F15.4°C -5537.2°C - 5.0 mph N8.0 kmh N 7.8 mph12.6 kmh 25.16 in852.0 mb 0.00 in0.0 mm 0.00 in0.0 mm 0.00 in0.0 mm
02:33 AM 59.5°F15.3°C -5537.2°C - 5.0 mph N8.0 kmh N 7.4 mph11.9 kmh 25.16 in852.0 mb 0.00 in0.0 mm 0.00 in0.0 mm 0.00 in0.0 mm
02:28 AM 59.2°F15.1°C -5537.2°C - 4.0 mph N6.4 kmh N 6.3 mph10.1 kmh 25.16 in852.0 mb 0.00 in0.0 mm 0.00 in0.0 mm 0.00 in0.0 mm
02:23 AM 58.5°F14.7°C -5537.2°C - 2.0 mph ESE3.2 kmh ESE 6.3 mph10.1 kmh 25.16 in852.0 mb 0.00 in0.0 mm 0.00 in0.0 mm 0.00 in0.0 mm
02:18 AM 59.4°F15.2°C -5537.2°C - 1.0 mph SSE1.6 kmh SSE 4.5 mph7.2 kmh 25.16 in852.0 mb 0.00 in0.0 mm 0.00 in0.0 mm 0.00 in0.0 mm
02:13 AM 59.4°F15.2°C -5537.2°C - Calm Calm 4.0 mph6.4 kmh 25.16 in852.0 mb 0.00 in0.0 mm 0.00 in0.0 mm 0.00 in0.0 mm
02:08 AM 59.2°F15.1°C -5537.2°C - 1.0 mph S1.6 kmh S 3.1 mph5.0 kmh 25.16 in852.0 mb 0.00 in0.0 mm 0.00 in0.0 mm 0.00 in0.0 mm
02:03 AM 59.0°F15.0°C -5537.2°C - 2.0 mph SSE3.2 kmh SSE 7.4 mph11.9 kmh 25.16 in852.0 mb 0.00 in0.0 mm 0.00 in0.0 mm 0.00 in0.0 mm
01:58 AM 59.2°F15.1°C -5537.2°C - 2.0 mph SE3.2 kmh SE 6.3 mph10.1 kmh 25.16 in852.0 mb 0.00 in0.0 mm 0.00 in0.0 mm 0.00 in0.0 mm
01:53 AM 59.4°F15.2°C -5537.2°C - 2.0 mph SE3.2 kmh SE 4.5 mph7.2 kmh 25.16 in852.0 mb 0.00 in0.0 mm 0.00 in0.0 mm 0.00 in0.0 mm
01:48 AM 59.4°F15.2°C -5537.2°C - 3.0 mph SE4.8 kmh SE 7.4 mph11.9 kmh 25.16 in852.0 mb 0.00 in0.0 mm 0.00 in0.0 mm 0.00 in0.0 mm
01:43 AM 58.8°F14.9°C -5537.2°C - 2.0 mph SE3.2 kmh SE 5.8 mph9.3 kmh 25.16 in852.0 mb 0.00 in0.0 mm 0.00 in0.0 mm 0.00 in0.0 mm
01:38 AM 58.8°F14.9°C -5537.2°C - 3.0 mph SE4.8 kmh SE 6.3 mph10.1 kmh 25.16 in852.0 mb 0.00 in0.0 mm 0.00 in0.0 mm 0.00 in0.0 mm
01:33 AM 59.2°F15.1°C -5537.2°C - 3.0 mph SE4.8 kmh SE 5.4 mph8.7 kmh 25.16 in852.0 mb 0.00 in0.0 mm 0.00 in0.0 mm 0.00 in0.0 mm
01:28 AM 59.5°F15.3°C -5537.2°C - 2.0 mph SE3.2 kmh SE 3.6 mph5.8 kmh 25.16 in852.0 mb 0.00 in0.0 mm 0.00 in0.0 mm 0.00 in0.0 mm
01:23 AM 59.4°F15.2°C -5537.2°C - 3.0 mph SE4.8 kmh SE 3.6 mph5.8 kmh 25.16 in852.0 mb 0.00 in0.0 mm 0.00 in0.0 mm 0.00 in0.0 mm
01:18 AM 59.4°F15.2°C -5537.2°C - 3.0 mph SE4.8 kmh SE 5.4 mph8.7 kmh 25.16 in852.0 mb 0.00 in0.0 mm 0.00 in0.0 mm 0.00 in0.0 mm
01:13 AM 59.5°F15.3°C -5537.2°C - 2.0 mph ESE3.2 kmh ESE 4.9 mph7.9 kmh 25.16 in852.0 mb 0.00 in0.0 mm 0.00 in0.0 mm 0.00 in0.0 mm
01:08 AM 59.4°F15.2°C -5537.2°C - 1.0 mph ESE1.6 kmh ESE 4.9 mph7.9 kmh 25.16 in852.0 mb 0.00 in0.0 mm 0.00 in0.0 mm 0.00 in0.0 mm
01:03 AM 59.4°F15.2°C -5537.2°C - 1.0 mph ESE1.6 kmh ESE 3.6 mph5.8 kmh 25.16 in852.0 mb 0.00 in0.0 mm 0.00 in0.0 mm 0.00 in0.0 mm
12:58 AM 60.1°F15.6°C -5537.2°C - 3.0 mph ESE4.8 kmh ESE 5.8 mph9.3 kmh 25.16 in852.0 mb 0.00 in0.0 mm 0.00 in0.0 mm 0.00 in0.0 mm
12:53 AM 60.4°F15.8°C -5537.2°C - 2.0 mph E3.2 kmh E 5.4 mph8.7 kmh 25.16 in852.0 mb 0.00 in0.0 mm 0.00 in0.0 mm 0.00 in0.0 mm
12:48 AM 60.6°F15.9°C -5537.2°C - 2.0 mph E3.2 kmh E 4.0 mph6.4 kmh 25.16 in852.0 mb 0.00 in0.0 mm 0.00 in0.0 mm 0.00 in0.0 mm
12:43 AM 60.4°F15.8°C -5537.2°C - 1.0 mph E1.6 kmh E 4.5 mph7.2 kmh 25.16 in852.0 mb 0.00 in0.0 mm 0.00 in0.0 mm 0.00 in0.0 mm
12:38 AM 60.4°F15.8°C -5537.2°C - 2.0 mph E3.2 kmh E 4.0 mph6.4 kmh 25.16 in852.0 mb 0.00 in0.0 mm 0.00 in0.0 mm 0.00 in0.0 mm
12:33 AM 61.5°F16.4°C -5537.2°C - 2.0 mph NE3.2 kmh NE 5.4 mph8.7 kmh 25.16 in852.0 mb 0.00 in0.0 mm 0.00 in0.0 mm 0.00 in0.0 mm
12:28 AM 61.7°F16.5°C -5537.2°C - Calm Calm 4.0 mph6.4 kmh 25.16 in852.0 mb 0.00 in0.0 mm 0.00 in0.0 mm 0.00 in0.0 mm
12:23 AM 61.9°F16.6°C -5537.2°C - Calm Calm 2.7 mph4.3 kmh 25.16 in852.0 mb 0.00 in0.0 mm 0.00 in0.0 mm 0.00 in0.0 mm
12:18 AM 61.7°F16.5°C -5537.2°C - 1.0 mph NE1.6 kmh NE 3.1 mph5.0 kmh 25.16 in852.0 mb 0.00 in0.0 mm 0.00 in0.0 mm 0.00 in0.0 mm
12:13 AM 62.2°F16.8°C -5537.2°C - 1.0 mph NE1.6 kmh NE 4.0 mph6.4 kmh 25.16 in852.0 mb 0.00 in0.0 mm 0.00 in0.0 mm 0.00 in0.0 mm
12:08 AM 62.4°F16.9°C -5537.2°C - 1.0 mph NE1.6 kmh NE 4.9 mph7.9 kmh 25.16 in852.0 mb 0.00 in0.0 mm 0.00 in0.0 mm 0.00 in0.0 mm
12:03 AM 62.8°F17.1°C -5537.2°C - 1.0 mph NE1.6 kmh NE 4.0 mph6.4 kmh 25.16 in852.0 mb 0.00 in0.0 mm 0.00 in0.0 mm 0.00 in0.0 mm